sensor_id;sensor_type;location;lat;lon;timestamp;P1;durP1;ratioP1;P2;durP2;ratioP2
48203;SDS011;33994;50.998;5.864;2023-04-02T00:01:54;5.20;;;4.20;;
48203;SDS011;33994;50.998;5.864;2023-04-02T00:05:37;5.85;;;4.55;;
48203;SDS011;33994;50.998;5.864;2023-04-02T00:08:41;6.00;;;4.63;;
48203;SDS011;33994;50.998;5.864;2023-04-02T00:11:46;8.15;;;5.47;;
48203;SDS011;33994;50.998;5.864;2023-04-02T00:14:52;7.55;;;5.80;;
48203;SDS011;33994;50.998;5.864;2023-04-02T00:17:56;6.97;;;5.60;;
48203;SDS011;33994;50.998;5.864;2023-04-02T00:21:05;6.93;;;5.45;;
48203;SDS011;33994;50.998;5.864;2023-04-02T00:24:14;6.05;;;4.97;;
48203;SDS011;33994;50.998;5.864;2023-04-02T00:27:20;7.20;;;5.70;;
48203;SDS011;33994;50.998;5.864;2023-04-02T00:30:24;6.55;;;5.15;;
48203;SDS011;33994;50.998;5.864;2023-04-02T00:33:27;7.57;;;5.20;;
48203;SDS011;33994;50.998;5.864;2023-04-02T00:36:33;10.35;;;5.72;;
48203;SDS011;33994;50.998;5.864;2023-04-02T00:39:37;6.78;;;5.25;;
48203;SDS011;33994;50.998;5.864;2023-04-02T00:42:42;7.03;;;5.35;;
48203;SDS011;33994;50.998;5.864;2023-04-02T00:45:46;7.65;;;5.65;;
48203;SDS011;33994;50.998;5.864;2023-04-02T00:48:56;7.88;;;6.13;;
48203;SDS011;33994;50.998;5.864;2023-04-02T00:52:02;6.72;;;5.50;;
48203;SDS011;33994;50.998;5.864;2023-04-02T00:55:10;8.10;;;5.45;;
48203;SDS011;33994;50.998;5.864;2023-04-02T00:58:21;9.52;;;6.50;;
48203;SDS011;33994;50.998;5.864;2023-04-02T01:01:35;8.75;;;5.43;;
48203;SDS011;33994;50.998;5.864;2023-04-02T01:04:39;9.65;;;6.00;;
48203;SDS011;33994;50.998;5.864;2023-04-02T01:07:46;6.20;;;5.18;;
48203;SDS011;33994;50.998;5.864;2023-04-02T01:11:01;6.75;;;5.13;;
48203;SDS011;33994;50.998;5.864;2023-04-02T01:14:14;6.32;;;4.40;;
48203;SDS011;33994;50.998;5.864;2023-04-02T01:17:34;6.10;;;4.63;;
48203;SDS011;33994;50.998;5.864;2023-04-02T01:20:58;6.80;;;4.70;;
48203;SDS011;33994;50.998;5.864;2023-04-02T01:24:19;6.97;;;4.70;;
48203;SDS011;33994;50.998;5.864;2023-04-02T01:27:25;5.93;;;4.90;;
48203;SDS011;33994;50.998;5.864;2023-04-02T01:30:33;5.72;;;4.40;;
48203;SDS011;33994;50.998;5.864;2023-04-02T01:33:38;4.90;;;4.25;;
48203;SDS011;33994;50.998;5.864;2023-04-02T01:36:46;5.70;;;4.43;;
48203;SDS011;33994;50.998;5.864;2023-04-02T01:40:02;5.40;;;4.15;;
48203;SDS011;33994;50.998;5.864;2023-04-02T01:43:19;4.95;;;3.80;;
48203;SDS011;33994;50.998;5.864;2023-04-02T01:46:26;3.97;;;3.58;;
48203;SDS011;33994;50.998;5.864;2023-04-02T01:49:31;4.22;;;3.35;;
48203;SDS011;33994;50.998;5.864;2023-04-02T01:52:35;3.90;;;3.20;;
48203;SDS011;33994;50.998;5.864;2023-04-02T01:55:43;5.07;;;3.25;;
48203;SDS011;33994;50.998;5.864;2023-04-02T01:58:49;4.13;;;3.28;;
48203;SDS011;33994;50.998;5.864;2023-04-02T02:01:57;3.70;;;3.00;;
48203;SDS011;33994;50.998;5.864;2023-04-02T02:05:03;4.05;;;2.90;;
48203;SDS011;33994;50.998;5.864;2023-04-02T02:08:12;3.33;;;3.00;;
48203;SDS011;33994;50.998;5.864;2023-04-02T02:11:26;4.00;;;3.10;;
48203;SDS011;33994;50.998;5.864;2023-04-02T02:14:31;4.38;;;3.45;;
48203;SDS011;33994;50.998;5.864;2023-04-02T02:17:35;7.50;;;3.78;;
48203;SDS011;33994;50.998;5.864;2023-04-02T02:20:39;4.53;;;3.33;;
48203;SDS011;33994;50.998;5.864;2023-04-02T02:23:43;4.85;;;3.20;;
48203;SDS011;33994;50.998;5.864;2023-04-02T02:26:47;4.15;;;3.63;;
48203;SDS011;33994;50.998;5.864;2023-04-02T02:29:57;5.70;;;3.55;;
48203;SDS011;33994;50.998;5.864;2023-04-02T02:33:09;4.75;;;3.75;;
48203;SDS011;33994;50.998;5.864;2023-04-02T02:36:19;6.32;;;4.43;;
48203;SDS011;33994;50.998;5.864;2023-04-02T02:39:28;6.97;;;4.30;;
48203;SDS011;33994;50.998;5.864;2023-04-02T02:42:37;4.88;;;4.10;;
48203;SDS011;33994;50.998;5.864;2023-04-02T02:45:43;8.47;;;4.57;;
48203;SDS011;33994;50.998;5.864;2023-04-02T02:48:49;7.53;;;4.55;;
48203;SDS011;33994;50.998;5.864;2023-04-02T02:51:57;5.03;;;4.10;;
48203;SDS011;33994;50.998;5.864;2023-04-02T02:55:02;5.88;;;4.57;;
48203;SDS011;33994;50.998;5.864;2023-04-02T02:58:09;6.18;;;5.03;;
48203;SDS011;33994;50.998;5.864;2023-04-02T03:01:15;5.93;;;4.57;;
48203;SDS011;33994;50.998;5.864;2023-04-02T03:04:20;7.65;;;5.13;;
48203;SDS011;33994;50.998;5.864;2023-04-02T03:07:25;8.65;;;6.15;;
48203;SDS011;33994;50.998;5.864;2023-04-02T03:10:31;7.75;;;5.55;;
48203;SDS011;33994;50.998;5.864;2023-04-02T03:13:41;8.90;;;5.95;;
48203;SDS011;33994;50.998;5.864;2023-04-02T03:16:48;7.80;;;5.80;;
48203;SDS011;33994;50.998;5.864;2023-04-02T03:19:57;9.75;;;6.72;;
48203;SDS011;33994;50.998;5.864;2023-04-02T03:23:06;10.55;;;7.22;;
48203;SDS011;33994;50.998;5.864;2023-04-02T03:26:16;9.68;;;6.82;;
48203;SDS011;33994;50.998;5.864;2023-04-02T03:29:25;8.63;;;6.68;;
48203;SDS011;33994;50.998;5.864;2023-04-02T03:32:31;8.50;;;6.55;;
48203;SDS011;33994;50.998;5.864;2023-04-02T03:35:41;11.00;;;6.82;;
48203;SDS011;33994;50.998;5.864;2023-04-02T03:38:48;8.77;;;6.47;;
48203;SDS011;33994;50.998;5.864;2023-04-02T03:41:55;12.77;;;7.15;;
48203;SDS011;33994;50.998;5.864;2023-04-02T03:45:04;10.30;;;6.80;;
48203;SDS011;33994;50.998;5.864;2023-04-02T03:48:14;11.18;;;6.82;;
48203;SDS011;33994;50.998;5.864;2023-04-02T03:51:25;10.18;;;6.57;;
48203;SDS011;33994;50.998;5.864;2023-04-02T03:54:31;10.88;;;6.32;;
48203;SDS011;33994;50.998;5.864;2023-04-02T03:57:36;11.10;;;6.22;;
48203;SDS011;33994;50.998;5.864;2023-04-02T04:00:46;11.43;;;6.68;;
48203;SDS011;33994;50.998;5.864;2023-04-02T04:03:54;10.43;;;6.68;;
48203;SDS011;33994;50.998;5.864;2023-04-02T04:07:04;8.85;;;6.82;;
48203;SDS011;33994;50.998;5.864;2023-04-02T04:10:15;9.55;;;6.82;;
48203;SDS011;33994;50.998;5.864;2023-04-02T04:13:23;9.75;;;6.55;;
48203;SDS011;33994;50.998;5.864;2023-04-02T04:16:34;8.48;;;6.00;;
48203;SDS011;33994;50.998;5.864;2023-04-02T04:19:45;15.20;;;7.00;;
48203;SDS011;33994;50.998;5.864;2023-04-02T04:22:53;13.70;;;6.78;;
48203;SDS011;33994;50.998;5.864;2023-04-02T04:25:57;8.38;;;6.25;;
48203;SDS011;33994;50.998;5.864;2023-04-02T04:29:03;9.85;;;6.72;;
48203;SDS011;33994;50.998;5.864;2023-04-02T04:32:18;9.85;;;6.20;;
48203;SDS011;33994;50.998;5.864;2023-04-02T04:35:28;8.63;;;5.90;;
48203;SDS011;33994;50.998;5.864;2023-04-02T04:38:34;7.95;;;6.28;;
48203;SDS011;33994;50.998;5.864;2023-04-02T04:41:40;10.05;;;6.60;;
48203;SDS011;33994;50.998;5.864;2023-04-02T04:44:45;9.70;;;5.78;;
48203;SDS011;33994;50.998;5.864;2023-04-02T04:47:53;10.70;;;7.30;;
48203;SDS011;33994;50.998;5.864;2023-04-02T04:51:00;9.05;;;6.70;;
48203;SDS011;33994;50.998;5.864;2023-04-02T04:54:09;8.77;;;6.72;;
48203;SDS011;33994;50.998;5.864;2023-04-02T04:57:18;11.70;;;6.40;;
48203;SDS011;33994;50.998;5.864;2023-04-02T05:00:29;11.88;;;6.75;;
48203;SDS011;33994;50.998;5.864;2023-04-02T05:03:43;9.73;;;6.90;;
48203;SDS011;33994;50.998;5.864;2023-04-02T05:06:53;11.30;;;6.38;;
48203;SDS011;33994;50.998;5.864;2023-04-02T05:10:00;10.07;;;6.45;;
48203;SDS011;33994;50.998;5.864;2023-04-02T05:13:10;11.27;;;7.47;;
48203;SDS011;33994;50.998;5.864;2023-04-02T05:16:20;10.60;;;6.97;;
48203;SDS011;33994;50.998;5.864;2023-04-02T05:19:28;10.15;;;7.00;;
48203;SDS011;33994;50.998;5.864;2023-04-02T05:22:37;14.93;;;7.40;;
48203;SDS011;33994;50.998;5.864;2023-04-02T05:25:51;12.60;;;7.80;;
48203;SDS011;33994;50.998;5.864;2023-04-02T05:28:58;14.70;;;7.40;;
48203;SDS011;33994;50.998;5.864;2023-04-02T05:32:10;11.05;;;7.70;;
48203;SDS011;33994;50.998;5.864;2023-04-02T05:35:18;12.90;;;7.85;;
48203;SDS011;33994;50.998;5.864;2023-04-02T05:38:26;15.23;;;7.85;;
48203;SDS011;33994;50.998;5.864;2023-04-02T05:41:35;13.23;;;7.65;;
48203;SDS011;33994;50.998;5.864;2023-04-02T05:44:42;16.98;;;8.32;;
48203;SDS011;33994;50.998;5.864;2023-04-02T05:47:53;13.43;;;8.60;;
48203;SDS011;33994;50.998;5.864;2023-04-02T05:50:58;16.13;;;8.45;;
48203;SDS011;33994;50.998;5.864;2023-04-02T05:54:02;14.13;;;8.57;;
48203;SDS011;33994;50.998;5.864;2023-04-02T05:57:10;9.40;;;7.18;;
48203;SDS011;33994;50.998;5.864;2023-04-02T06:00:19;12.05;;;7.30;;
48203;SDS011;33994;50.998;5.864;2023-04-02T06:03:30;10.70;;;7.40;;
48203;SDS011;33994;50.998;5.864;2023-04-02T06:06:51;14.02;;;7.78;;
48203;SDS011;33994;50.998;5.864;2023-04-02T06:10:00;13.10;;;7.60;;
48203;SDS011;33994;50.998;5.864;2023-04-02T06:13:09;11.27;;;7.20;;
48203;SDS011;33994;50.998;5.864;2023-04-02T06:16:24;11.88;;;7.50;;
48203;SDS011;33994;50.998;5.864;2023-04-02T06:19:32;11.20;;;6.05;;
48203;SDS011;33994;50.998;5.864;2023-04-02T06:22:38;14.27;;;7.13;;
48203;SDS011;33994;50.998;5.864;2023-04-02T06:25:45;9.05;;;5.95;;
48203;SDS011;33994;50.998;5.864;2023-04-02T06:28:52;14.18;;;7.68;;
48203;SDS011;33994;50.998;5.864;2023-04-02T06:32:02;12.13;;;8.00;;
48203;SDS011;33994;50.998;5.864;2023-04-02T06:35:10;11.77;;;8.18;;
48203;SDS011;33994;50.998;5.864;2023-04-02T06:38:15;13.10;;;7.78;;
48203;SDS011;33994;50.998;5.864;2023-04-02T06:41:22;12.15;;;7.88;;
48203;SDS011;33994;50.998;5.864;2023-04-02T06:44:27;12.43;;;7.82;;
48203;SDS011;33994;50.998;5.864;2023-04-02T06:47:36;12.20;;;7.70;;
48203;SDS011;33994;50.998;5.864;2023-04-02T06:50:43;14.93;;;8.63;;
48203;SDS011;33994;50.998;5.864;2023-04-02T06:53:49;12.40;;;8.85;;
48203;SDS011;33994;50.998;5.864;2023-04-02T06:56:53;14.93;;;9.15;;
48203;SDS011;33994;50.998;5.864;2023-04-02T06:59:58;17.23;;;10.05;;
48203;SDS011;33994;50.998;5.864;2023-04-02T07:03:01;16.55;;;9.52;;
48203;SDS011;33994;50.998;5.864;2023-04-02T07:06:11;19.20;;;10.23;;
48203;SDS011;33994;50.998;5.864;2023-04-02T07:09:16;18.85;;;11.20;;
48203;SDS011;33994;50.998;5.864;2023-04-02T07:12:19;18.05;;;11.20;;
48203;SDS011;33994;50.998;5.864;2023-04-02T07:15:26;17.92;;;11.30;;
48203;SDS011;33994;50.998;5.864;2023-04-02T07:18:31;18.80;;;11.30;;
48203;SDS011;33994;50.998;5.864;2023-04-02T07:21:35;24.33;;;12.07;;
48203;SDS011;33994;50.998;5.864;2023-04-02T07:24:38;20.83;;;11.57;;
48203;SDS011;33994;50.998;5.864;2023-04-02T07:27:41;24.45;;;11.27;;
48203;SDS011;33994;50.998;5.864;2023-04-02T07:30:45;19.23;;;10.93;;
48203;SDS011;33994;50.998;5.864;2023-04-02T07:33:49;18.55;;;10.35;;
48203;SDS011;33994;50.998;5.864;2023-04-02T07:36:52;25.33;;;11.73;;
48203;SDS011;33994;50.998;5.864;2023-04-02T07:39:54;17.52;;;11.05;;
48203;SDS011;33994;50.998;5.864;2023-04-02T07:42:58;18.58;;;11.13;;
48203;SDS011;33994;50.998;5.864;2023-04-02T07:46:02;19.52;;;11.88;;
48203;SDS011;33994;50.998;5.864;2023-04-02T07:49:06;22.17;;;13.27;;
48203;SDS011;33994;50.998;5.864;2023-04-02T07:52:10;25.80;;;14.05;;
48203;SDS011;33994;50.998;5.864;2023-04-02T07:55:13;23.63;;;13.50;;
48203;SDS011;33994;50.998;5.864;2023-04-02T07:58:18;30.23;;;16.23;;
48203;SDS011;33994;50.998;5.864;2023-04-02T08:01:22;28.08;;;13.75;;
48203;SDS011;33994;50.998;5.864;2023-04-02T08:04:27;23.90;;;12.82;;
48203;SDS011;33994;50.998;5.864;2023-04-02T08:07:30;22.38;;;12.10;;
48203;SDS011;33994;50.998;5.864;2023-04-02T08:10:33;19.38;;;11.45;;
48203;SDS011;33994;50.998;5.864;2023-04-02T08:13:36;20.08;;;12.55;;
48203;SDS011;33994;50.998;5.864;2023-04-02T08:16:45;24.08;;;13.13;;
48203;SDS011;33994;50.998;5.864;2023-04-02T08:19:49;26.63;;;14.32;;
48203;SDS011;33994;50.998;5.864;2023-04-02T08:22:53;25.17;;;14.07;;
48203;SDS011;33994;50.998;5.864;2023-04-02T08:25:56;22.13;;;14.07;;
48203;SDS011;33994;50.998;5.864;2023-04-02T08:28:58;22.98;;;13.13;;
48203;SDS011;33994;50.998;5.864;2023-04-02T08:32:03;21.15;;;13.15;;
48203;SDS011;33994;50.998;5.864;2023-04-02T08:35:06;25.25;;;13.45;;
48203;SDS011;33994;50.998;5.864;2023-04-02T08:38:10;18.65;;;11.40;;
48203;SDS011;33994;50.998;5.864;2023-04-02T08:41:19;21.77;;;12.65;;
48203;SDS011;33994;50.998;5.864;2023-04-02T08:44:30;24.85;;;11.93;;
48203;SDS011;33994;50.998;5.864;2023-04-02T08:47:44;22.95;;;12.77;;
48203;SDS011;33994;50.998;5.864;2023-04-02T08:50:49;26.23;;;13.93;;
48203;SDS011;33994;50.998;5.864;2023-04-02T08:53:54;23.83;;;14.52;;
48203;SDS011;33994;50.998;5.864;2023-04-02T08:57:02;20.63;;;12.93;;
48203;SDS011;33994;50.998;5.864;2023-04-02T09:00:15;26.35;;;14.23;;
48203;SDS011;33994;50.998;5.864;2023-04-02T09:06:33;22.67;;;13.00;;
48203;SDS011;33994;50.998;5.864;2023-04-02T09:09:37;19.35;;;12.60;;
48203;SDS011;33994;50.998;5.864;2023-04-02T09:12:40;21.08;;;12.05;;
48203;SDS011;33994;50.998;5.864;2023-04-02T09:15:47;17.65;;;11.43;;
48203;SDS011;33994;50.998;5.864;2023-04-02T09:18:53;16.92;;;12.30;;
48203;SDS011;33994;50.998;5.864;2023-04-02T09:21:59;18.17;;;11.15;;
48203;SDS011;33994;50.998;5.864;2023-04-02T09:25:11;22.75;;;13.18;;
48203;SDS011;33994;50.998;5.864;2023-04-02T09:28:17;18.25;;;11.55;;
48203;SDS011;33994;50.998;5.864;2023-04-02T09:31:22;19.00;;;11.60;;
48203;SDS011;33994;50.998;5.864;2023-04-02T09:34:33;19.50;;;12.30;;
48203;SDS011;33994;50.998;5.864;2023-04-02T09:37:38;25.40;;;12.45;;
48203;SDS011;33994;50.998;5.864;2023-04-02T09:40:42;17.15;;;11.18;;
48203;SDS011;33994;50.998;5.864;2023-04-02T09:43:48;26.02;;;11.85;;
48203;SDS011;33994;50.998;5.864;2023-04-02T09:46:53;20.25;;;11.70;;
48203;SDS011;33994;50.998;5.864;2023-04-02T09:50:12;23.38;;;13.00;;
48203;SDS011;33994;50.998;5.864;2023-04-02T09:53:25;17.48;;;11.85;;
48203;SDS011;33994;50.998;5.864;2023-04-02T09:56:32;22.47;;;12.80;;
48203;SDS011;33994;50.998;5.864;2023-04-02T09:59:36;16.50;;;11.02;;
48203;SDS011;33994;50.998;5.864;2023-04-02T10:02:39;15.82;;;10.90;;
48203;SDS011;33994;50.998;5.864;2023-04-02T10:05:44;18.35;;;10.82;;
48203;SDS011;33994;50.998;5.864;2023-04-02T10:08:48;16.70;;;10.05;;
48203;SDS011;33994;50.998;5.864;2023-04-02T10:11:52;18.02;;;10.82;;
48203;SDS011;33994;50.998;5.864;2023-04-02T10:14:56;20.70;;;11.48;;
48203;SDS011;33994;50.998;5.864;2023-04-02T10:18:05;16.38;;;10.98;;
48203;SDS011;33994;50.998;5.864;2023-04-02T10:21:16;18.85;;;11.48;;
48203;SDS011;33994;50.998;5.864;2023-04-02T10:24:21;23.77;;;12.95;;
48203;SDS011;33994;50.998;5.864;2023-04-02T10:27:26;18.75;;;12.32;;
48203;SDS011;33994;50.998;5.864;2023-04-02T10:30:37;15.60;;;11.43;;
48203;SDS011;33994;50.998;5.864;2023-04-02T10:33:53;20.08;;;12.15;;
48203;SDS011;33994;50.998;5.864;2023-04-02T10:37:06;21.58;;;13.32;;
48203;SDS011;33994;50.998;5.864;2023-04-02T10:40:27;20.77;;;11.10;;
48203;SDS011;33994;50.998;5.864;2023-04-02T10:43:44;17.88;;;11.57;;
48203;SDS011;33994;50.998;5.864;2023-04-02T10:47:03;18.98;;;11.35;;
48203;SDS011;33994;50.998;5.864;2023-04-02T10:50:19;18.00;;;10.70;;
48203;SDS011;33994;50.998;5.864;2023-04-02T10:53:31;13.73;;;9.52;;
48203;SDS011;33994;50.998;5.864;2023-04-02T10:56:41;15.48;;;9.65;;
48203;SDS011;33994;50.998;5.864;2023-04-02T10:59:47;17.23;;;10.27;;
48203;SDS011;33994;50.998;5.864;2023-04-02T11:02:57;16.88;;;10.45;;
48203;SDS011;33994;50.998;5.864;2023-04-02T11:06:10;15.40;;;9.63;;
48203;SDS011;33994;50.998;5.864;2023-04-02T11:09:20;15.55;;;11.07;;
48203;SDS011;33994;50.998;5.864;2023-04-02T11:12:30;14.73;;;9.82;;
48203;SDS011;33994;50.998;5.864;2023-04-02T11:15:39;15.45;;;9.73;;
48203;SDS011;33994;50.998;5.864;2023-04-02T11:18:43;17.23;;;10.18;;
48203;SDS011;33994;50.998;5.864;2023-04-02T11:22:23;12.43;;;9.23;;
48203;SDS011;33994;50.998;5.864;2023-04-02T11:25:28;11.13;;;8.93;;
48203;SDS011;33994;50.998;5.864;2023-04-02T11:28:31;14.70;;;9.20;;
48203;SDS011;33994;50.998;5.864;2023-04-02T11:31:35;18.40;;;8.90;;
48203;SDS011;33994;50.998;5.864;2023-04-02T11:48:45;16.30;;;10.05;;
48203;SDS011;33994;50.998;5.864;2023-04-02T11:51:48;16.95;;;10.10;;
48203;SDS011;33994;50.998;5.864;2023-04-02T11:54:56;17.20;;;8.65;;
48203;SDS011;33994;50.998;5.864;2023-04-02T12:05:00;12.55;;;8.60;;
48203;SDS011;33994;50.998;5.864;2023-04-02T12:08:15;14.35;;;8.48;;
48203;SDS011;33994;50.998;5.864;2023-04-02T12:11:29;13.48;;;8.77;;
48203;SDS011;33994;50.998;5.864;2023-04-02T12:14:46;14.63;;;9.20;;
48203;SDS011;33994;50.998;5.864;2023-04-02T12:17:50;14.68;;;8.63;;
48203;SDS011;33994;50.998;5.864;2023-04-02T12:20:54;13.57;;;8.77;;
48203;SDS011;33994;50.998;5.864;2023-04-02T12:23:58;13.00;;;9.35;;
48203;SDS011;33994;50.998;5.864;2023-04-02T12:27:06;17.42;;;8.93;;
48203;SDS011;33994;50.998;5.864;2023-04-02T12:30:13;14.55;;;9.93;;
48203;SDS011;33994;50.998;5.864;2023-04-02T12:33:25;16.88;;;9.48;;
48203;SDS011;33994;50.998;5.864;2023-04-02T12:36:31;16.65;;;9.05;;
48203;SDS011;33994;50.998;5.864;2023-04-02T12:39:35;12.68;;;8.98;;
48203;SDS011;33994;50.998;5.864;2023-04-02T12:42:38;13.40;;;9.20;;
48203;SDS011;33994;50.998;5.864;2023-04-02T12:45:42;14.73;;;9.20;;
48203;SDS011;33994;50.998;5.864;2023-04-02T12:48:45;12.23;;;9.02;;
48203;SDS011;33994;50.998;5.864;2023-04-02T12:51:48;14.13;;;9.65;;
48203;SDS011;33994;50.998;5.864;2023-04-02T12:54:52;15.48;;;9.30;;
48203;SDS011;33994;50.998;5.864;2023-04-02T12:57:57;12.88;;;8.70;;
48203;SDS011;33994;50.998;5.864;2023-04-02T13:01:15;12.07;;;8.82;;
48203;SDS011;33994;50.998;5.864;2023-04-02T13:04:20;17.63;;;9.98;;
48203;SDS011;33994;50.998;5.864;2023-04-02T13:07:24;15.75;;;9.88;;
48203;SDS011;33994;50.998;5.864;2023-04-02T13:10:29;14.23;;;9.55;;
48203;SDS011;33994;50.998;5.864;2023-04-02T13:13:32;11.32;;;8.38;;
48203;SDS011;33994;50.998;5.864;2023-04-02T13:16:38;13.00;;;8.77;;
48203;SDS011;33994;50.998;5.864;2023-04-02T13:19:42;11.23;;;8.07;;
48203;SDS011;33994;50.998;5.864;2023-04-02T13:22:45;11.50;;;8.15;;
48203;SDS011;33994;50.998;5.864;2023-04-02T13:25:48;11.38;;;9.20;;
48203;SDS011;33994;50.998;5.864;2023-04-02T13:28:56;13.77;;;8.57;;
48203;SDS011;33994;50.998;5.864;2023-04-02T13:32:03;13.13;;;7.97;;
48203;SDS011;33994;50.998;5.864;2023-04-02T13:35:07;21.90;;;9.02;;
48203;SDS011;33994;50.998;5.864;2023-04-02T13:38:11;11.65;;;8.07;;
48203;SDS011;33994;50.998;5.864;2023-04-02T13:41:20;13.45;;;8.13;;
48203;SDS011;33994;50.998;5.864;2023-04-02T13:44:26;10.98;;;8.10;;
48203;SDS011;33994;50.998;5.864;2023-04-02T13:47:32;13.52;;;8.57;;
48203;SDS011;33994;50.998;5.864;2023-04-02T13:50:35;13.82;;;8.40;;
48203;SDS011;33994;50.998;5.864;2023-04-02T13:53:38;10.32;;;8.80;;
48203;SDS011;33994;50.998;5.864;2023-04-02T13:56:41;13.45;;;9.00;;
48203;SDS011;33994;50.998;5.864;2023-04-02T13:59:44;9.27;;;7.50;;
48203;SDS011;33994;50.998;5.864;2023-04-02T14:02:49;14.88;;;8.05;;
48203;SDS011;33994;50.998;5.864;2023-04-02T14:05:57;13.50;;;8.15;;
48203;SDS011;33994;50.998;5.864;2023-04-02T14:09:07;8.95;;;7.53;;
48203;SDS011;33994;50.998;5.864;2023-04-02T14:12:22;14.15;;;8.48;;
48203;SDS011;33994;50.998;5.864;2023-04-02T14:15:43;9.80;;;7.82;;
48203;SDS011;33994;50.998;5.864;2023-04-02T14:19:02;13.88;;;8.88;;
48203;SDS011;33994;50.998;5.864;2023-04-02T14:22:17;9.48;;;7.50;;
48203;SDS011;33994;50.998;5.864;2023-04-02T14:25:30;15.88;;;8.02;;
48203;SDS011;33994;50.998;5.864;2023-04-02T14:28:41;14.20;;;8.98;;
48203;SDS011;33994;50.998;5.864;2023-04-02T14:31:54;11.18;;;7.78;;
48203;SDS011;33994;50.998;5.864;2023-04-02T14:35:08;13.13;;;7.55;;
48203;SDS011;33994;50.998;5.864;2023-04-02T14:38:19;9.25;;;7.15;;
48203;SDS011;33994;50.998;5.864;2023-04-02T14:41:28;10.63;;;6.78;;
48203;SDS011;33994;50.998;5.864;2023-04-02T14:44:40;9.60;;;7.35;;
48203;SDS011;33994;50.998;5.864;2023-04-02T14:47:50;10.50;;;7.30;;
48203;SDS011;33994;50.998;5.864;2023-04-02T14:51:00;11.75;;;7.30;;
48203;SDS011;33994;50.998;5.864;2023-04-02T14:54:10;9.93;;;7.50;;
48203;SDS011;33994;50.998;5.864;2023-04-02T14:57:18;11.25;;;7.30;;
48203;SDS011;33994;50.998;5.864;2023-04-02T15:00:28;10.82;;;7.22;;
48203;SDS011;33994;50.998;5.864;2023-04-02T15:03:36;8.25;;;5.93;;
48203;SDS011;33994;50.998;5.864;2023-04-02T15:06:46;8.27;;;6.20;;
48203;SDS011;33994;50.998;5.864;2023-04-02T15:09:53;10.38;;;6.68;;
48203;SDS011;33994;50.998;5.864;2023-04-02T15:13:07;16.13;;;6.80;;
48203;SDS011;33994;50.998;5.864;2023-04-02T15:16:19;11.57;;;6.88;;
48203;SDS011;33994;50.998;5.864;2023-04-02T15:19:24;11.20;;;7.38;;
48203;SDS011;33994;50.998;5.864;2023-04-02T15:22:30;14.23;;;6.55;;
48203;SDS011;33994;50.998;5.864;2023-04-02T15:25:40;11.13;;;7.20;;
48203;SDS011;33994;50.998;5.864;2023-04-02T15:28:50;10.27;;;7.05;;
48203;SDS011;33994;50.998;5.864;2023-04-02T15:32:03;7.80;;;5.80;;
48203;SDS011;33994;50.998;5.864;2023-04-02T15:35:22;12.60;;;6.28;;
48203;SDS011;33994;50.998;5.864;2023-04-02T15:38:34;14.18;;;8.20;;
48203;SDS011;33994;50.998;5.864;2023-04-02T15:41:45;11.20;;;6.20;;
48203;SDS011;33994;50.998;5.864;2023-04-02T15:45:14;14.18;;;7.53;;
48203;SDS011;33994;50.998;5.864;2023-04-02T15:52:04;11.30;;;6.90;;
48203;SDS011;33994;50.998;5.864;2023-04-02T15:55:15;8.80;;;5.70;;
48203;SDS011;33994;50.998;5.864;2023-04-02T15:58:27;11.25;;;6.43;;
48203;SDS011;33994;50.998;5.864;2023-04-02T16:01:48;10.93;;;6.60;;
48203;SDS011;33994;50.998;5.864;2023-04-02T16:04:56;10.68;;;7.68;;
48203;SDS011;33994;50.998;5.864;2023-04-02T16:11:18;8.02;;;5.95;;
48203;SDS011;33994;50.998;5.864;2023-04-02T16:14:23;8.55;;;6.93;;
48203;SDS011;33994;50.998;5.864;2023-04-02T16:17:29;10.73;;;6.45;;
48203;SDS011;33994;50.998;5.864;2023-04-02T16:20:38;9.23;;;7.13;;
48203;SDS011;33994;50.998;5.864;2023-04-02T16:23:45;7.70;;;5.90;;
48203;SDS011;33994;50.998;5.864;2023-04-02T16:26:53;8.82;;;6.53;;
48203;SDS011;33994;50.998;5.864;2023-04-02T16:30:07;8.05;;;5.35;;
48203;SDS011;33994;50.998;5.864;2023-04-02T16:33:29;10.82;;;5.38;;
48203;SDS011;33994;50.998;5.864;2023-04-02T16:36:51;9.02;;;6.60;;
48203;SDS011;33994;50.998;5.864;2023-04-02T16:40:03;9.40;;;5.45;;
48203;SDS011;33994;50.998;5.864;2023-04-02T16:43:21;8.55;;;5.70;;
48203;SDS011;33994;50.998;5.864;2023-04-02T16:46:31;7.82;;;5.95;;
48203;SDS011;33994;50.998;5.864;2023-04-02T16:49:42;7.65;;;5.60;;
48203;SDS011;33994;50.998;5.864;2023-04-02T16:52:54;6.97;;;5.05;;
48203;SDS011;33994;50.998;5.864;2023-04-02T16:56:11;11.35;;;5.28;;
48203;SDS011;33994;50.998;5.864;2023-04-02T16:59:30;9.15;;;4.88;;
48203;SDS011;33994;50.998;5.864;2023-04-02T17:02:40;8.13;;;4.80;;
48203;SDS011;33994;50.998;5.864;2023-04-02T17:05:54;6.22;;;4.47;;
48203;SDS011;33994;50.998;5.864;2023-04-02T17:09:05;6.78;;;5.38;;
48203;SDS011;33994;50.998;5.864;2023-04-02T17:12:18;6.88;;;4.75;;
48203;SDS011;33994;50.998;5.864;2023-04-02T17:15:25;7.95;;;5.68;;
48203;SDS011;33994;50.998;5.864;2023-04-02T17:18:29;8.57;;;4.80;;
48203;SDS011;33994;50.998;5.864;2023-04-02T17:21:35;7.88;;;4.90;;
48203;SDS011;33994;50.998;5.864;2023-04-02T17:24:40;7.43;;;5.05;;
48203;SDS011;33994;50.998;5.864;2023-04-02T17:27:47;7.90;;;4.57;;
48203;SDS011;33994;50.998;5.864;2023-04-02T17:30:56;5.22;;;3.75;;
48203;SDS011;33994;50.998;5.864;2023-04-02T17:34:07;7.88;;;5.18;;
48203;SDS011;33994;50.998;5.864;2023-04-02T17:37:16;10.85;;;5.55;;
48203;SDS011;33994;50.998;5.864;2023-04-02T17:40:27;10.57;;;5.88;;
48203;SDS011;33994;50.998;5.864;2023-04-02T17:43:38;8.82;;;5.00;;
48203;SDS011;33994;50.998;5.864;2023-04-02T17:46:48;10.07;;;5.60;;
48203;SDS011;33994;50.998;5.864;2023-04-02T17:50:08;9.52;;;4.90;;
48203;SDS011;33994;50.998;5.864;2023-04-02T17:53:40;8.20;;;5.20;;
48203;SDS011;33994;50.998;5.864;2023-04-02T17:56:56;9.73;;;5.65;;
48203;SDS011;33994;50.998;5.864;2023-04-02T18:00:15;7.43;;;4.88;;
48203;SDS011;33994;50.998;5.864;2023-04-02T18:03:29;8.60;;;5.13;;
48203;SDS011;33994;50.998;5.864;2023-04-02T18:06:44;8.25;;;5.35;;
48203;SDS011;33994;50.998;5.864;2023-04-02T18:10:11;11.75;;;6.15;;
48203;SDS011;33994;50.998;5.864;2023-04-02T18:13:22;6.63;;;5.13;;
48203;SDS011;33994;50.998;5.864;2023-04-02T18:16:40;8.40;;;5.30;;
48203;SDS011;33994;50.998;5.864;2023-04-02T18:19:52;9.07;;;5.45;;
48203;SDS011;33994;50.998;5.864;2023-04-02T18:23:03;9.25;;;5.40;;
48203;SDS011;33994;50.998;5.864;2023-04-02T18:26:14;9.13;;;5.30;;
48203;SDS011;33994;50.998;5.864;2023-04-02T18:29:27;8.95;;;5.75;;
48203;SDS011;33994;50.998;5.864;2023-04-02T18:36:11;7.60;;;5.63;;
48203;SDS011;33994;50.998;5.864;2023-04-02T18:39:22;11.07;;;6.82;;
48203;SDS011;33994;50.998;5.864;2023-04-02T18:42:39;9.88;;;6.57;;
48203;SDS011;33994;50.998;5.864;2023-04-02T18:45:52;9.32;;;6.63;;
48203;SDS011;33994;50.998;5.864;2023-04-02T18:48:58;10.10;;;5.88;;
48203;SDS011;33994;50.998;5.864;2023-04-02T18:52:10;9.50;;;4.75;;
48203;SDS011;33994;50.998;5.864;2023-04-02T18:55:16;9.57;;;5.63;;
48203;SDS011;33994;50.998;5.864;2023-04-02T18:58:23;10.13;;;5.60;;
48203;SDS011;33994;50.998;5.864;2023-04-02T19:01:30;9.60;;;5.40;;
48203;SDS011;33994;50.998;5.864;2023-04-02T19:04:38;7.88;;;5.18;;
48203;SDS011;33994;50.998;5.864;2023-04-02T19:07:47;9.40;;;5.63;;
48203;SDS011;33994;50.998;5.864;2023-04-02T19:10:53;10.65;;;5.82;;
48203;SDS011;33994;50.998;5.864;2023-04-02T19:14:01;8.65;;;5.35;;
48203;SDS011;33994;50.998;5.864;2023-04-02T19:17:06;9.60;;;5.65;;